Time;durP1;ratioP1;P1;durP2;ratioP2;P2;SDS_P1;SDS_P2;PMS_P1;PMS_P2;Temp;Humidity;BMP_temperature;BMP_pressure;BME280_temperature;BME280_humidity;BME280_pressure;Samples;Min_cycle;Max_cycle;Signal;HPM_P1;HPM_P2
2022/09/22 00:01:27;;;;;;;11.60;3.67;;;20.90;99.90;;;;;;4964902;28;20244;-71
2022/09/22 00:03:58;;;;;;;14.50;3.80;;;21.00;99.90;;;;;;5001411;28;20287;-70
2022/09/22 00:06:29;;;;;;;13.20;3.73;;;21.00;99.90;;;;;;5002972;28;20539;-71
2022/09/22 00:09:01;;;;;;;11.97;3.50;;;21.00;99.90;;;;;;5011459;28;20233;-70
2022/09/22 00:11:35;;;;;;;13.97;3.80;;;21.00;99.90;;;;;;5009725;28;20898;-70
2022/09/22 00:14:22;;;;;;;14.83;4.00;;;20.90;99.90;;;;;;4996126;28;20888;-71
2022/09/22 00:16:59;;;;;;;13.65;3.47;;;20.90;99.90;;;;;;5000698;28;20196;-70
2022/09/22 00:19:37;;;;;;;13.10;3.83;;;20.90;99.90;;;;;;5007611;28;20307;-70
2022/09/22 00:22:05;;;;;;;12.70;3.80;;;20.90;99.90;;;;;;5004092;28;20185;-71
2022/09/22 00:24:33;;;;;;;15.20;3.63;;;20.90;99.90;;;;;;5004647;28;20828;-70
2022/09/22 00:27:00;;;;;;;13.82;3.70;;;20.90;99.90;;;;;;5015778;28;20181;-70
2022/09/22 00:29:29;;;;;;;13.37;3.87;;;20.90;99.90;;;;;;4990507;28;20202;-70
2022/09/22 00:31:56;;;;;;;13.97;3.70;;;20.80;99.90;;;;;;5000409;28;20288;-71
2022/09/22 00:34:26;;;;;;;12.90;3.93;;;20.90;99.90;;;;;;4996204;28;20185;-70
2022/09/22 00:36:53;;;;;;;16.37;4.00;;;20.90;99.90;;;;;;4983082;28;20195;-71
2022/09/22 00:39:20;;;;;;;13.73;3.40;;;20.90;99.90;;;;;;4993265;28;20278;-71
2022/09/22 00:41:50;;;;;;;10.73;3.60;;;21.00;99.90;;;;;;5010111;28;20276;-71
2022/09/22 00:44:29;;;;;;;11.47;3.93;;;21.00;99.90;;;;;;5011112;28;20710;-70
2022/09/22 00:47:32;;;;;;;10.30;3.57;;;21.00;99.90;;;;;;5010234;28;20192;-70
2022/09/22 00:50:10;;;;;;;12.80;3.90;;;21.00;99.90;;;;;;4979506;28;20189;-70
2022/09/22 00:52:52;;;;;;;17.43;4.13;;;21.00;99.90;;;;;;5008534;28;20681;-70
2022/09/22 00:55:37;;;;;;;15.30;3.47;;;21.00;99.90;;;;;;4992934;28;20702;-71
2022/09/22 00:58:10;;;;;;;14.20;4.20;;;21.00;99.90;;;;;;4993600;28;20583;-70
2022/09/22 01:00:37;;;;;;;16.23;4.20;;;21.00;99.90;;;;;;4995529;28;20216;-70
2022/09/22 01:03:11;;;;;;;17.70;3.60;;;21.00;99.90;;;;;;4999069;28;20236;-71
2022/09/22 01:05:41;;;;;;;13.17;3.77;;;21.10;99.90;;;;;;4988861;28;20901;-71
2022/09/22 01:08:10;;;;;;;12.47;3.90;;;21.10;99.90;;;;;;5010619;28;20192;-70
2022/09/22 01:10:36;;;;;;;12.50;4.17;;;21.10;99.90;;;;;;4989550;28;20239;-71
2022/09/22 01:13:19;;;;;;;17.00;4.53;;;21.10;99.90;;;;;;4988488;28;20204;-70
2022/09/22 01:16:07;;;;;;;13.95;4.20;;;21.10;99.90;;;;;;4999173;28;20259;-70
2022/09/22 01:18:54;;;;;;;12.80;3.93;;;21.20;99.90;;;;;;4981289;28;20306;-70
2022/09/22 01:21:48;;;;;;;20.10;4.27;;;21.10;99.90;;;;;;5003846;28;20219;-70
2022/09/22 01:24:50;;;;;;;25.67;3.67;;;21.10;99.90;;;;;;5004952;28;20196;-71
2022/09/22 01:27:33;;;;;;;11.03;3.63;;;21.10;99.90;;;;;;4988567;28;20185;-70
2022/09/22 01:30:14;;;;;;;16.60;4.30;;;21.10;99.90;;;;;;5003948;28;20188;-70
2022/09/22 01:33:08;;;;;;;13.13;3.77;;;21.10;99.90;;;;;;4990717;28;20675;-70
2022/09/22 01:36:10;;;;;;;15.47;3.70;;;21.10;99.90;;;;;;4996483;28;20399;-71
2022/09/22 01:39:03;;;;;;;13.77;4.00;;;21.10;99.90;;;;;;4984879;28;20256;-71
2022/09/22 01:42:10;;;;;;;12.98;4.03;;;21.10;99.90;;;;;;4990166;28;20227;-70
2022/09/22 01:44:44;;;;;;;17.93;4.33;;;21.20;99.90;;;;;;4979944;28;20188;-71
2022/09/22 01:47:18;;;;;;;11.30;4.30;;;21.20;99.90;;;;;;5007290;28;20204;-70
2022/09/22 01:49:55;;;;;;;18.67;4.13;;;21.20;99.90;;;;;;5001887;28;20192;-70
2022/09/22 01:52:38;;;;;;;12.17;3.80;;;21.30;99.90;;;;;;4973449;28;20200;-71
2022/09/22 01:55:20;;;;;;;15.97;4.10;;;21.30;99.90;;;;;;4997113;28;20581;-70
2022/09/22 01:58:19;;;;;;;18.67;4.57;;;21.30;99.90;;;;;;5007663;28;20962;-71
2022/09/22 02:00:55;;;;;;;17.60;4.30;;;21.30;99.90;;;;;;5002439;28;20317;-71
2022/09/22 02:03:53;;;;;;;16.23;4.53;;;21.30;99.90;;;;;;5002367;28;20188;-71
2022/09/22 02:06:30;;;;;;;17.40;4.15;;;21.30;99.90;;;;;;4994772;28;20606;-70
2022/09/22 02:09:10;;;;;;;14.93;4.57;;;21.30;99.90;;;;;;5003161;28;20191;-71
2022/09/22 02:11:37;;;;;;;19.93;4.47;;;21.30;99.90;;;;;;5000161;28;20197;-70
2022/09/22 02:14:05;;;;;;;18.57;4.40;;;21.30;99.90;;;;;;4997257;28;20204;-71
2022/09/22 02:16:33;;;;;;;18.87;4.83;;;21.40;99.90;;;;;;5008228;28;20303;-71
2022/09/22 02:19:31;;;;;;;10.33;4.13;;;21.40;99.90;;;;;;5009298;28;20204;-71
2022/09/22 02:21:59;;;;;;;14.15;4.32;;;21.40;99.90;;;;;;4989893;28;20198;-71
2022/09/22 02:24:31;;;;;;;13.80;3.80;;;21.40;99.90;;;;;;5002987;28;20200;-71
2022/09/22 02:27:05;;;;;;;20.20;4.57;;;21.40;99.90;;;;;;5007657;28;20185;-71
2022/09/22 02:29:38;;;;;;;23.00;5.38;;;21.40;99.90;;;;;;5007763;28;20806;-71
2022/09/22 02:32:12;;;;;;;19.03;4.37;;;21.40;99.90;;;;;;5013008;28;20328;-71
2022/09/22 02:34:39;;;;;;;16.57;4.60;;;21.40;99.90;;;;;;5002473;28;20184;-71
2022/09/22 02:37:57;;;;;;;19.93;4.93;;;21.40;99.90;;;;;;5002883;28;20200;-71
2022/09/22 02:40:43;;;;;;;18.50;4.70;;;21.40;99.90;;;;;;5008413;28;20213;-71
2022/09/22 02:43:42;;;;;;;14.77;4.77;;;21.40;99.90;;;;;;5006414;28;20219;-71
2022/09/22 02:46:17;;;;;;;13.00;4.17;;;21.40;99.90;;;;;;4983602;28;20193;-71
2022/09/22 02:48:53;;;;;;;15.30;4.23;;;21.40;99.90;;;;;;4990241;28;20763;-70
2022/09/22 02:51:20;;;;;;;14.07;4.10;;;21.40;99.90;;;;;;4996807;28;20550;-71
2022/09/22 02:53:47;;;;;;;26.83;4.27;;;21.50;99.90;;;;;;5001531;28;20196;-71
2022/09/22 02:56:13;;;;;;;20.87;4.97;;;21.50;99.90;;;;;;5008135;28;20189;-70
2022/09/22 02:58:39;;;;;;;17.50;3.80;;;21.50;99.90;;;;;;5003269;28;20536;-71
2022/09/22 03:01:05;;;;;;;14.57;4.17;;;21.50;99.90;;;;;;5001409;28;20212;-71
2022/09/22 03:03:32;;;;;;;18.00;4.30;;;21.50;99.90;;;;;;4992135;28;20184;-71
2022/09/22 03:05:58;;;;;;;17.03;4.57;;;21.50;99.90;;;;;;4999388;28;20257;-71
2022/09/22 03:08:24;;;;;;;17.52;4.20;;;21.50;99.90;;;;;;5000221;28;20242;-71
2022/09/22 03:10:50;;;;;;;22.10;3.97;;;21.40;99.90;;;;;;5006113;28;20193;-71
2022/09/22 03:13:18;;;;;;;15.40;4.13;;;21.50;99.90;;;;;;4990439;28;20200;-71
2022/09/22 03:15:45;;;;;;;17.13;4.17;;;21.50;99.90;;;;;;5006194;28;20304;-71
2022/09/22 03:18:12;;;;;;;14.17;4.40;;;21.50;99.90;;;;;;4981135;28;20188;-71
2022/09/22 03:20:39;;;;;;;12.93;3.67;;;21.50;99.90;;;;;;5007221;28;20295;-70
2022/09/22 03:23:09;;;;;;;14.48;4.25;;;21.50;99.90;;;;;;4989071;28;20196;-71
2022/09/22 03:25:35;;;;;;;13.33;3.87;;;21.50;99.90;;;;;;4975632;28;20193;-71
2022/09/22 03:28:02;;;;;;;12.30;3.43;;;21.50;99.90;;;;;;5008144;28;20849;-71
2022/09/22 03:30:28;;;;;;;20.70;4.20;;;21.50;99.90;;;;;;4999082;28;20185;-71
2022/09/22 03:32:54;;;;;;;16.23;4.23;;;21.50;99.90;;;;;;5007590;28;20590;-70
2022/09/22 03:35:21;;;;;;;16.40;4.03;;;21.50;99.90;;;;;;4993228;28;20654;-71
2022/09/22 03:37:47;;;;;;;18.60;5.10;;;21.60;99.90;;;;;;4966400;28;20189;-71
2022/09/22 03:40:15;;;;;;;23.13;5.35;;;21.60;99.90;;;;;;4980534;28;20930;-71
2022/09/22 03:42:42;;;;;;;16.45;4.40;;;21.60;99.90;;;;;;4998958;28;20177;-70
2022/09/22 03:45:11;;;;;;;14.52;4.50;;;21.60;99.90;;;;;;4989007;28;20183;-70
2022/09/22 03:47:37;;;;;;;25.88;5.07;;;21.60;99.90;;;;;;4987371;28;20188;-70
2022/09/22 03:50:04;;;;;;;19.40;4.75;;;21.60;99.90;;;;;;4986031;28;20730;-71
2022/09/22 03:52:31;;;;;;;17.13;4.65;;;21.60;99.90;;;;;;4994082;28;20192;-71
2022/09/22 03:54:57;;;;;;;17.05;4.32;;;21.60;99.90;;;;;;5004365;28;20267;-70
2022/09/22 03:57:24;;;;;;;17.70;4.50;;;21.60;99.90;;;;;;5006840;28;20197;-71
2022/09/22 03:59:51;;;;;;;19.30;4.90;;;21.60;99.90;;;;;;5005944;28;20870;-71
2022/09/22 04:02:17;;;;;;;20.42;4.25;;;21.60;99.90;;;;;;4990732;28;20188;-71
2022/09/22 04:04:43;;;;;;;22.73;4.80;;;21.60;99.90;;;;;;5007131;28;20196;-71
2022/09/22 04:07:09;;;;;;;18.42;5.00;;;21.60;99.90;;;;;;4980954;28;20185;-71
2022/09/22 04:09:36;;;;;;;14.98;4.70;;;21.60;99.90;;;;;;4995201;28;20193;-71
2022/09/22 04:12:02;;;;;;;15.80;4.65;;;21.60;99.90;;;;;;5008506;28;20251;-71
2022/09/22 04:14:34;;;;;;;18.15;5.03;;;21.60;99.90;;;;;;5000073;28;20196;-70
2022/09/22 04:17:01;;;;;;;14.60;4.70;;;21.60;99.90;;;;;;5005830;28;20189;-71
2022/09/22 04:19:27;;;;;;;13.32;4.07;;;21.60;99.90;;;;;;5022789;28;20209;-71
2022/09/22 04:21:55;;;;;;;18.00;5.00;;;21.60;99.90;;;;;;4986838;28;20193;-71
2022/09/22 04:24:23;;;;;;;19.50;5.22;;;21.60;99.90;;;;;;5008020;28;20254;-70
2022/09/22 04:26:49;;;;;;;13.35;4.93;;;21.70;99.90;;;;;;5005528;28;20193;-71
2022/09/22 04:29:18;;;;;;;16.10;4.97;;;21.70;99.90;;;;;;4996245;28;20192;-70
2022/09/22 04:31:44;;;;;;;17.97;5.33;;;21.70;99.90;;;;;;5012650;28;20251;-71
2022/09/22 04:34:10;;;;;;;18.67;5.50;;;21.70;99.90;;;;;;4986043;28;20186;-71
2022/09/22 04:36:36;;;;;;;19.93;5.23;;;21.60;99.90;;;;;;4993182;28;20195;-71
2022/09/22 04:39:04;;;;;;;22.02;5.60;;;21.70;99.90;;;;;;4995234;28;20207;-71
2022/09/22 04:41:30;;;;;;;20.52;5.60;;;21.70;99.90;;;;;;5001931;28;20217;-71
2022/09/22 04:43:57;;;;;;;18.52;5.47;;;21.70;99.90;;;;;;5009947;28;20901;-70
2022/09/22 04:46:27;;;;;;;23.23;6.13;;;21.70;99.90;;;;;;4999596;28;20905;-71
2022/09/22 04:48:54;;;;;;;20.55;5.45;;;21.70;99.90;;;;;;5017755;28;20551;-70
2022/09/22 04:51:21;;;;;;;23.83;6.22;;;21.80;99.90;;;;;;5021440;28;20209;-70
2022/09/22 04:53:47;;;;;;;18.23;5.72;;;21.80;99.90;;;;;;5017277;28;20710;-71
2022/09/22 04:56:13;;;;;;;22.83;5.60;;;21.80;99.90;;;;;;4993043;28;20188;-71
2022/09/22 04:58:40;;;;;;;18.03;5.80;;;21.90;99.90;;;;;;4983757;28;20207;-71
2022/09/22 05:01:07;;;;;;;25.98;5.85;;;21.90;99.90;;;;;;5010857;28;20213;-71
2022/09/22 05:03:36;;;;;;;24.20;5.57;;;21.90;99.90;;;;;;5000449;28;20191;-71
2022/09/22 05:06:05;;;;;;;21.17;5.83;;;21.90;99.90;;;;;;5011070;28;20204;-71
2022/09/22 05:08:31;;;;;;;24.00;5.83;;;22.00;99.90;;;;;;4999631;28;20185;-71
2022/09/22 05:10:58;;;;;;;21.43;5.80;;;22.00;99.90;;;;;;5000586;28;20203;-70
2022/09/22 05:13:24;;;;;;;17.88;5.60;;;22.00;99.90;;;;;;4981240;28;20192;-71
2022/09/22 05:15:51;;;;;;;16.73;5.78;;;22.00;99.90;;;;;;5010934;28;20188;-71
2022/09/22 05:18:17;;;;;;;24.30;5.80;;;22.00;99.90;;;;;;5008965;28;20181;-71
2022/09/22 05:20:44;;;;;;;24.50;5.60;;;22.00;99.90;;;;;;5007258;28;20220;-71
2022/09/22 05:23:10;;;;;;;22.20;5.60;;;22.00;99.90;;;;;;4974928;28;20655;-71
2022/09/22 05:25:38;;;;;;;21.50;5.28;;;22.00;99.90;;;;;;4995315;28;20204;-71
2022/09/22 05:28:04;;;;;;;21.70;5.80;;;22.00;99.90;;;;;;4989218;28;20844;-70
2022/09/22 05:30:30;;;;;;;18.03;5.37;;;22.00;99.90;;;;;;4987889;28;20177;-71
2022/09/22 05:32:56;;;;;;;26.35;5.50;;;22.00;99.90;;;;;;5003905;28;20185;-71
2022/09/22 05:35:25;;;;;;;30.30;5.67;;;22.00;99.90;;;;;;4982332;28;20944;-71
2022/09/22 05:37:52;;;;;;;27.17;5.47;;;22.10;99.90;;;;;;5010085;28;20189;-71
2022/09/22 05:40:22;;;;;;;19.77;5.07;;;22.10;99.90;;;;;;4980437;28;20219;-71
2022/09/22 05:42:51;;;;;;;17.03;5.43;;;22.10;99.90;;;;;;4987599;28;20640;-71
2022/09/22 05:45:20;;;;;;;20.40;5.03;;;22.20;99.90;;;;;;5004616;28;20190;-71
2022/09/22 05:47:47;;;;;;;19.57;4.97;;;22.20;99.90;;;;;;5007668;28;20185;-71
2022/09/22 05:50:16;;;;;;;21.03;5.60;;;22.20;99.90;;;;;;5007041;28;20717;-71
2022/09/22 05:52:43;;;;;;;20.83;5.33;;;22.30;99.90;;;;;;4974894;28;20189;-71
2022/09/22 05:55:11;;;;;;;20.93;5.07;;;22.20;99.90;;;;;;4999070;28;20277;-71
2022/09/22 05:57:37;;;;;;;16.40;4.93;;;22.20;99.90;;;;;;4993562;28;20282;-71
2022/09/22 06:00:08;;;;;;;23.08;5.15;;;22.30;99.90;;;;;;5003888;28;20295;-71
2022/09/22 06:02:34;;;;;;;17.17;4.93;;;22.30;99.90;;;;;;5003552;28;20236;-71
2022/09/22 06:05:00;;;;;;;17.98;5.25;;;22.30;99.90;;;;;;4990324;28;20197;-71
2022/09/22 06:07:27;;;;;;;21.53;4.73;;;22.40;99.90;;;;;;4998696;28;20189;-71
2022/09/22 06:09:53;;;;;;;21.27;5.35;;;22.40;99.90;;;;;;4998295;28;20185;-71
2022/09/22 06:12:19;;;;;;;25.60;4.83;;;22.60;99.90;;;;;;4992301;28;20197;-71
2022/09/22 06:14:46;;;;;;;22.37;5.33;;;22.70;99.90;;;;;;4981611;28;20193;-72
2022/09/22 06:17:13;;;;;;;30.33;5.18;;;22.80;99.90;;;;;;4991154;28;20193;-71
2022/09/22 06:19:40;;;;;;;22.80;5.43;;;22.80;99.90;;;;;;4988183;28;20216;-71
2022/09/22 06:22:09;;;;;;;27.23;5.10;;;22.80;99.90;;;;;;5006224;28;20201;-71
2022/09/22 06:24:36;;;;;;;19.95;4.80;;;22.80;99.90;;;;;;4983444;28;20192;-71
2022/09/22 06:27:02;;;;;;;28.75;4.88;;;22.70;99.90;;;;;;5010934;28;20215;-71
2022/09/22 06:29:29;;;;;;;19.48;4.80;;;22.80;99.90;;;;;;4978928;28;20519;-71
2022/09/22 06:31:55;;;;;;;21.52;5.05;;;22.80;99.90;;;;;;5005901;28;20191;-71
2022/09/22 06:34:22;;;;;;;18.17;4.97;;;22.90;99.90;;;;;;4984378;28;20231;-71
2022/09/22 06:36:49;;;;;;;19.45;4.68;;;22.90;99.90;;;;;;5005910;28;20216;-71
2022/09/22 06:39:15;;;;;;;18.05;4.70;;;22.90;99.90;;;;;;5009806;28;20184;-71
2022/09/22 06:41:43;;;;;;;15.13;4.85;;;22.90;99.90;;;;;;4971588;28;20181;-70
2022/09/22 06:44:14;;;;;;;20.10;5.40;;;23.10;99.90;;;;;;4989259;28;20272;-72
2022/09/22 06:46:41;;;;;;;17.17;4.53;;;23.10;99.90;;;;;;5008891;28;20185;-71
2022/09/22 06:49:08;;;;;;;19.80;4.93;;;23.20;99.90;;;;;;5002487;28;20232;-71
2022/09/22 06:51:35;;;;;;;24.80;4.75;;;23.30;99.90;;;;;;4998986;28;20189;-71
2022/09/22 06:54:05;;;;;;;15.25;4.30;;;23.20;99.90;;;;;;4992548;28;20188;-71
2022/09/22 06:56:36;;;;;;;17.77;4.30;;;23.20;99.90;;;;;;5010883;28;20619;-71
2022/09/22 06:59:09;;;;;;;17.65;4.75;;;23.10;99.90;;;;;;5009928;28;20542;-71
2022/09/22 07:01:35;;;;;;;16.80;4.60;;;23.00;99.90;;;;;;5009518;28;20274;-71
2022/09/22 07:04:02;;;;;;;18.00;4.85;;;22.90;99.90;;;;;;5003066;28;20231;-71
2022/09/22 07:06:28;;;;;;;13.75;4.15;;;23.00;99.90;;;;;;5005747;28;20643;-70
2022/09/22 07:08:54;;;;;;;15.00;4.13;;;23.10;99.90;;;;;;4989622;28;20212;-71
2022/09/22 07:11:22;;;;;;;18.50;4.07;;;23.20;99.90;;;;;;4984479;28;20790;-72
2022/09/22 07:13:53;;;;;;;19.13;4.03;;;23.30;99.90;;;;;;5001465;28;21132;-71
2022/09/22 07:16:23;;;;;;;17.98;4.22;;;23.40;99.90;;;;;;4992464;28;20239;-73
2022/09/22 07:18:57;;;;;;;18.33;4.57;;;23.40;99.90;;;;;;5015822;28;20186;-72
2022/09/22 07:21:34;;;;;;;16.88;3.33;;;23.50;99.90;;;;;;4984961;28;20250;-73
2022/09/22 07:24:01;;;;;;;10.45;3.72;;;23.60;99.90;;;;;;4994972;28;20207;-73
2022/09/22 07:26:32;;;;;;;11.05;3.45;;;23.60;99.90;;;;;;5009633;28;20196;-71
2022/09/22 07:29:02;;;;;;;12.80;3.15;;;23.50;99.90;;;;;;5010049;28;20208;-72
2022/09/22 07:31:33;;;;;;;13.45;3.60;;;23.50;99.90;;;;;;5008932;28;20535;-72
2022/09/22 07:34:02;;;;;;;18.10;4.47;;;23.40;99.90;;;;;;5011444;28;20188;-72
2022/09/22 07:36:32;;;;;;;18.85;3.72;;;23.40;99.90;;;;;;4999357;28;20239;-73
2022/09/22 07:39:09;;;;;;;5.25;2.80;;;23.60;99.90;;;;;;5004934;28;20879;-72
2022/09/22 07:41:41;;;;;;;12.85;3.28;;;23.70;99.90;;;;;;5000408;28;20297;-72
2022/09/22 07:46:57;;;;;;;10.73;3.60;;;23.90;99.90;;;;;;5002923;28;20909;-72
2022/09/22 07:49:23;;;;;;;7.78;2.70;;;23.90;99.90;;;;;;5008162;28;20188;-72
2022/09/22 07:51:53;;;;;;;7.40;3.35;;;23.80;99.90;;;;;;4992561;28;20180;-72
2022/09/22 07:54:21;;;;;;;8.82;2.97;;;23.80;99.90;;;;;;5010789;28;20253;-72
2022/09/22 07:56:48;;;;;;;7.85;3.00;;;23.90;99.90;;;;;;5008354;28;20188;-72
2022/09/22 07:59:15;;;;;;;12.25;2.60;;;24.10;99.90;;;;;;4997795;28;20200;-72
2022/09/22 08:01:49;;;;;;;7.80;2.45;;;24.20;99.90;;;;;;5015955;28;20192;-72
2022/09/22 08:04:22;;;;;;;7.28;2.90;;;24.20;99.90;;;;;;5005388;28;20196;-72
2022/09/22 08:06:54;;;;;;;17.88;2.97;;;24.20;99.90;;;;;;5004100;28;20193;-72
2022/09/22 08:09:22;;;;;;;8.25;2.67;;;24.30;99.90;;;;;;4989708;28;20212;-72
2022/09/22 08:11:48;;;;;;;11.15;2.85;;;24.30;99.90;;;;;;5002944;28;20199;-72
2022/09/22 08:14:17;;;;;;;12.07;2.72;;;24.40;99.90;;;;;;4991741;28;20193;-72
2022/09/22 08:16:44;;;;;;;13.35;2.97;;;24.40;99.90;;;;;;5002859;28;20529;-72
2022/09/22 08:19:12;;;;;;;9.43;2.65;;;24.40;99.90;;;;;;4995063;28;20196;-72
2022/09/22 08:21:46;;;;;;;12.65;2.95;;;24.40;99.90;;;;;;4992570;28;20240;-73
2022/09/22 08:24:16;;;;;;;9.65;2.80;;;24.50;99.90;;;;;;4996597;28;20199;-74
2022/09/22 08:26:44;;;;;;;17.40;2.70;;;24.50;99.90;;;;;;5000311;28;20189;-72
2022/09/22 08:29:10;;;;;;;7.18;2.45;;;24.40;99.90;;;;;;4984781;28;20272;-73
2022/09/22 08:31:41;;;;;;;7.50;2.42;;;24.50;99.90;;;;;;5011909;28;20204;-72
2022/09/22 08:34:09;;;;;;;8.50;2.58;;;24.70;99.90;;;;;;4973796;28;20306;-72
2022/09/22 08:36:37;;;;;;;8.48;2.60;;;24.50;99.90;;;;;;5003747;28;20276;-72
2022/09/22 08:39:04;;;;;;;7.10;2.20;;;24.40;99.90;;;;;;4999993;28;20255;-72
2022/09/22 08:41:58;;;;;;;15.82;2.83;;;24.40;99.90;;;;;;5001384;28;20693;-72
2022/09/22 08:44:36;;;;;;;22.20;2.70;;;24.50;99.90;;;;;;5009510;28;20193;-72
2022/09/22 08:47:04;;;;;;;12.52;2.80;;;24.60;99.90;;;;;;4986920;28;20195;-73
2022/09/22 08:52:48;;;;;;;10.48;2.28;;;24.80;99.90;;;;;;4994723;28;20283;-71
2022/09/22 08:55:26;;;;;;;8.20;2.42;;;24.90;99.90;;;;;;4981738;28;20192;-73
2022/09/22 08:58:16;;;;;;;12.52;2.55;;;24.90;99.90;;;;;;5015536;28;20195;-72
2022/09/22 09:01:15;;;;;;;12.00;2.63;;;25.10;99.90;;;;;;5011342;28;20292;-72
2022/09/22 09:04:21;;;;;;;7.00;2.17;;;25.00;99.90;;;;;;4990270;28;20643;-71
2022/09/22 09:07:21;;;;;;;8.20;2.30;;;25.10;99.90;;;;;;5003256;28;20185;-72
2022/09/22 09:10:35;;;;;;;7.90;2.15;;;25.20;99.90;;;;;;5000668;28;20193;-72
2022/09/22 09:13:36;;;;;;;8.10;2.38;;;25.40;99.90;;;;;;4998684;28;20224;-72
2022/09/22 09:16:39;;;;;;;5.75;1.90;;;25.40;99.90;;;;;;4998506;28;20196;-72
2022/09/22 09:19:28;;;;;;;11.93;2.80;;;25.10;99.90;;;;;;4986812;28;20729;-71
2022/09/22 09:22:04;;;;;;;7.95;2.72;;;25.10;99.90;;;;;;5015219;28;20196;-71
2022/09/22 09:24:36;;;;;;;11.23;2.70;;;25.20;99.90;;;;;;4989756;28;20235;-72
2022/09/22 09:27:12;;;;;;;12.20;2.30;;;25.60;99.90;;;;;;5005424;28;20192;-69
2022/09/22 09:30:05;;;;;;;10.75;2.50;;;26.10;99.90;;;;;;4997377;28;20267;-71
2022/09/22 09:33:09;;;;;;;12.05;2.60;;;26.60;99.90;;;;;;5002993;28;20250;-72
2022/09/22 09:35:42;;;;;;;9.35;2.50;;;26.30;99.90;;;;;;4996502;28;20196;-71
2022/09/22 09:38:16;;;;;;;8.70;2.70;;;25.80;99.90;;;;;;5009810;28;20205;-72
2022/09/22 09:40:53;;;;;;;6.50;2.30;;;26.40;99.90;;;;;;5009939;28;20219;-72
2022/09/22 09:43:24;;;;;;;7.72;1.98;;;26.80;99.90;;;;;;5007807;28;20336;-70
2022/09/22 09:46:26;;;;;;;6.07;2.22;;;27.30;99.90;;;;;;5005096;28;20180;-70
2022/09/22 09:49:13;;;;;;;5.88;1.73;;;27.80;99.90;;;;;;5000374;28;20769;-70
2022/09/22 09:51:52;;;;;;;7.15;2.20;;;30.00;99.90;;;;;;5015017;28;20597;-69
2022/09/22 09:54:19;;;;;;;7.05;1.95;;;31.10;99.90;;;;;;5006341;28;20219;-70
2022/09/22 09:57:18;;;;;;;8.48;1.95;;;30.70;99.90;;;;;;5003392;28;20215;-69
2022/09/22 10:00:32;;;;;;;5.65;1.70;;;29.80;99.90;;;;;;4990364;28;20232;-71
2022/09/22 10:03:28;;;;;;;20.40;2.60;;;29.30;99.90;;;;;;5003904;28;20211;-71
2022/09/22 10:06:01;;;;;;;7.60;1.98;;;28.80;99.90;;;;;;5005454;28;20180;-70
2022/09/22 10:08:43;;;;;;;11.43;2.20;;;28.60;99.90;;;;;;5011113;28;20196;-71
2022/09/22 10:11:13;;;;;;;9.65;2.05;;;28.60;99.90;;;;;;5010355;28;20185;-71
2022/09/22 10:13:43;;;;;;;6.90;2.17;;;28.80;99.90;;;;;;4981312;28;20235;-71
2022/09/22 10:16:29;;;;;;;5.43;1.80;;;30.10;99.90;;;;;;4997751;28;20189;-71
2022/09/22 10:18:58;;;;;;;5.88;2.03;;;31.70;99.90;;;;;;5009763;28;20323;-70
2022/09/22 10:21:27;;;;;;;10.90;2.33;;;33.00;99.90;;;;;;4991514;28;20662;-70
2022/09/22 10:24:00;;;;;;;9.88;2.25;;;33.20;99.30;;;;;;5017262;28;20196;-71
2022/09/22 10:26:30;;;;;;;7.50;2.17;;;32.30;99.30;;;;;;4989744;28;20524;-70
2022/09/22 10:29:28;;;;;;;5.30;2.10;;;30.80;99.90;;;;;;4986762;28;20185;-70
2022/09/22 10:32:16;;;;;;;10.75;2.50;;;29.50;99.90;;;;;;4938430;28;20212;-70
2022/09/22 10:34:47;;;;;;;10.43;2.47;;;28.60;99.90;;;;;;5003651;28;20208;-70
2022/09/22 10:37:19;;;;;;;11.77;2.47;;;28.30;99.90;;;;;;4980811;28;20188;-70
2022/09/22 10:40:00;;;;;;;7.38;2.40;;;28.20;99.90;;;;;;5008735;28;20234;-70
2022/09/22 10:42:44;;;;;;;7.78;2.55;;;27.80;99.90;;;;;;5008720;28;20267;-70
2022/09/22 10:45:18;;;;;;;6.03;2.28;;;27.50;99.90;;;;;;4981727;28;20188;-71
2022/09/22 10:47:59;;;;;;;15.02;3.20;;;27.60;99.90;;;;;;4996495;28;20205;-71
2022/09/22 10:50:54;;;;;;;16.65;2.63;;;27.60;99.90;;;;;;4994951;28;20199;-70
2022/09/22 10:54:10;;;;;;;5.88;2.17;;;27.60;99.90;;;;;;4970995;28;20197;-70
2022/09/22 10:56:42;;;;;;;9.48;2.25;;;27.70;99.90;;;;;;4992381;28;20193;-70
2022/09/22 10:59:50;;;;;;;6.22;2.28;;;27.60;99.90;;;;;;5001736;28;20180;-70
2022/09/22 11:02:55;;;;;;;13.45;2.60;;;27.70;99.90;;;;;;5001660;28;20192;-70
2022/09/22 11:12:22;;;;;;;18.83;2.67;;;27.90;99.90;;;;;;4988009;28;20204;-70
2022/09/22 11:15:13;;;;;;;11.52;2.60;;;27.70;99.90;;;;;;4986781;28;20328;-70
2022/09/22 11:18:04;;;;;;;7.22;2.45;;;27.70;99.90;;;;;;4993772;28;20586;-70
2022/09/22 11:20:55;;;;;;;11.45;2.60;;;27.50;99.90;;;;;;4992441;28;20210;-70
2022/09/22 11:23:58;;;;;;;10.93;2.10;;;27.60;99.90;;;;;;4972476;28;20225;-70
2022/09/22 11:26:48;;;;;;;11.15;2.08;;;27.40;99.90;;;;;;4980254;28;20196;-69
2022/09/22 11:30:20;;;;;;;6.80;2.13;;;27.20;99.90;;;;;;5001638;28;20193;-69
2022/09/22 11:33:15;;;;;;;7.50;2.30;;;27.10;99.90;;;;;;4972548;28;20979;-70
2022/09/22 11:36:22;;;;;;;4.85;2.08;;;27.30;99.90;;;;;;5004823;28;20199;-69
2022/09/22 11:39:01;;;;;;;24.17;3.00;;;27.30;99.90;;;;;;4993639;28;20262;-69
2022/09/22 11:41:49;;;;;;;8.70;2.55;;;27.10;99.90;;;;;;5005000;28;20235;-70
2022/09/22 11:44:29;;;;;;;8.90;2.10;;;27.00;99.90;;;;;;4999160;28;20193;-71
2022/09/22 11:47:37;;;;;;;10.00;2.45;;;27.10;99.90;;;;;;4987948;28;20250;-72
2022/09/22 11:50:12;;;;;;;9.10;2.70;;;26.90;99.90;;;;;;4978705;28;20184;-72
2022/09/22 11:52:51;;;;;;;8.65;2.63;;;27.00;99.90;;;;;;5007478;28;20241;-72
2022/09/22 11:55:42;;;;;;;7.47;2.13;;;26.90;99.90;;;;;;5008548;28;20880;-72
2022/09/22 11:58:20;;;;;;;16.88;2.65;;;26.90;99.90;;;;;;5004968;28;20210;-72
2022/09/22 12:00:59;;;;;;;10.57;2.28;;;26.80;99.90;;;;;;4988613;28;20220;-72
2022/09/22 12:03:57;;;;;;;7.93;2.20;;;26.70;99.90;;;;;;5005441;28;20677;-72
2022/09/22 12:06:35;;;;;;;13.82;2.90;;;26.40;99.90;;;;;;4990745;28;20189;-72
2022/09/22 12:09:22;;;;;;;9.07;2.20;;;26.60;99.90;;;;;;5008718;28;20975;-72
2022/09/22 12:11:51;;;;;;;7.35;2.45;;;26.60;99.90;;;;;;4976622;28;20196;-72
2022/09/22 12:14:19;;;;;;;7.22;2.70;;;26.60;99.90;;;;;;5002639;28;20196;-72
2022/09/22 12:17:17;;;;;;;14.40;2.60;;;26.60;99.90;;;;;;5016353;28;20539;-71
2022/09/22 12:20:02;;;;;;;8.85;3.05;;;26.60;99.90;;;;;;5003705;28;20200;-71
2022/09/22 12:23:14;;;;;;;15.60;3.00;;;26.60;99.90;;;;;;4992655;28;20597;-71
2022/09/22 12:25:59;;;;;;;6.88;2.50;;;26.50;99.90;;;;;;4970526;28;20236;-72
2022/09/22 12:28:31;;;;;;;10.65;2.65;;;26.40;99.90;;;;;;5004869;28;20271;-70
2022/09/22 12:31:16;;;;;;;6.82;2.42;;;26.40;99.90;;;;;;4998282;28;20231;-72
2022/09/22 12:34:19;;;;;;;11.85;2.83;;;26.40;99.90;;;;;;4997031;28;20207;-71
2022/09/22 12:36:47;;;;;;;11.07;2.53;;;26.40;99.90;;;;;;4989107;28;20224;-72
2022/09/22 12:39:25;;;;;;;23.35;2.75;;;26.50;99.90;;;;;;4995671;28;20242;-70
2022/09/22 12:42:34;;;;;;;10.38;2.80;;;26.50;99.90;;;;;;5013723;28;20250;-73
2022/09/22 12:45:36;;;;;;;14.50;2.78;;;26.50;99.90;;;;;;4987290;28;20200;-72
2022/09/22 12:48:32;;;;;;;7.97;2.55;;;26.40;99.90;;;;;;4981331;28;20271;-72
2022/09/22 12:51:37;;;;;;;13.80;2.78;;;26.40;99.90;;;;;;4988048;28;20527;-72
2022/09/22 12:54:21;;;;;;;10.90;2.58;;;26.40;99.90;;;;;;4945275;29;20206;-72
2022/09/22 12:57:02;;;;;;;11.65;2.67;;;26.40;99.90;;;;;;4977314;28;20205;-70
2022/09/22 12:59:41;;;;;;;7.00;2.30;;;26.30;99.90;;;;;;4998584;28;20185;-73
2022/09/22 13:02:14;;;;;;;15.32;2.72;;;26.40;99.90;;;;;;5003218;28;20201;-73
2022/09/22 13:04:59;;;;;;;12.13;2.10;;;26.40;99.90;;;;;;5013806;28;20193;-72
2022/09/22 13:07:44;;;;;;;10.27;2.67;;;26.30;99.90;;;;;;4986302;28;20185;-72
2022/09/22 13:10:25;;;;;;;5.82;2.15;;;26.20;99.90;;;;;;5011359;28;20221;-72
2022/09/22 13:13:04;;;;;;;8.32;2.53;;;26.20;99.90;;;;;;4984347;28;20325;-73
2022/09/22 13:15:48;;;;;;;7.05;2.30;;;26.10;99.90;;;;;;5017667;28;20907;-73
2022/09/22 13:18:39;;;;;;;9.27;2.58;;;26.10;99.90;;;;;;4998618;28;20200;-72
2022/09/22 13:21:12;;;;;;;8.23;2.22;;;26.10;99.90;;;;;;5007781;28;20247;-72
2022/09/22 13:23:50;;;;;;;9.02;2.42;;;26.10;99.90;;;;;;4970645;28;20351;-72
2022/09/22 13:26:22;;;;;;;5.60;2.28;;;26.10;99.90;;;;;;5003672;28;20189;-73
2022/09/22 13:29:14;;;;;;;7.65;2.45;;;26.00;99.90;;;;;;5002545;28;20662;-72
2022/09/22 13:31:53;;;;;;;11.80;2.30;;;25.90;99.90;;;;;;5007367;28;20320;-72
2022/09/22 13:34:23;;;;;;;14.32;2.50;;;26.00;99.90;;;;;;5006813;28;20197;-73
2022/09/22 13:37:02;;;;;;;7.15;1.83;;;26.00;99.90;;;;;;4979639;28;20196;-72